Terminal Aerodrome Forecast
Issued by NWS

Home | Current Version | Previous Version | Text Only | Print | Product List | Glossary On
Versions: 1 2 3 4 5 6 7 8 9 10 11 12 13 14
000
FTUS45 KCYS 221134
TAFAIA
TAF
KAIA 221134Z 2212/2312 16008KT 6SM BR VCSH OVC015
     FM230000 VRB05KT P6SM OVC015
     FM230600 VRB05KT 3SM BR SCT007 OVC015=

USA.gov is the U.S. government's official web portal to all federal, state and local government web resources and services.